createdAt,value
2024-02-13T00:00:27.068Z,70.80
2024-02-13T00:01:27.145Z,131.90
2024-02-13T00:02:27.100Z,96.40
2024-02-13T00:03:27.101Z,106.50
2024-02-13T00:04:27.173Z,94.90
2024-02-13T00:05:27.094Z,91.60
2024-02-13T00:06:27.026Z,112.30
2024-02-13T00:07:27.078Z,124.20
2024-02-13T00:08:33.280Z,148.50
2024-02-13T00:09:27.008Z,77.40
2024-02-13T00:10:27.054Z,104.00
2024-02-13T00:11:27.054Z,113.10
2024-02-13T00:12:26.997Z,132.10
2024-02-13T00:13:26.983Z,107.90
2024-02-13T00:14:27.038Z,116.20
2024-02-13T00:15:26.978Z,122.00
2024-02-13T00:16:27.059Z,111.80
2024-02-13T00:17:26.958Z,80.90
2024-02-13T00:18:27.030Z,93.70
2024-02-13T00:19:26.945Z,78.20
2024-02-13T00:20:26.893Z,104.70
2024-02-13T00:21:26.924Z,117.10
2024-02-13T00:22:26.973Z,72.20
2024-02-13T00:23:26.896Z,87.90
2024-02-13T00:24:26.913Z,109.60
2024-02-13T00:25:26.854Z,105.60
2024-02-13T00:26:26.888Z,116.80
2024-02-13T00:27:26.848Z,130.50
2024-02-13T00:28:26.921Z,157.50
2024-02-13T00:29:26.901Z,168.20
2024-02-13T00:30:26.915Z,174.90
2024-02-13T00:31:26.785Z,131.70
2024-02-13T00:32:26.900Z,119.00
2024-02-13T00:33:26.854Z,124.90
2024-02-13T00:34:26.972Z,129.60
2024-02-13T00:35:26.798Z,185.50
2024-02-13T00:36:26.781Z,98.40
2024-02-13T00:37:26.821Z,94.00
2024-02-13T00:38:26.771Z,118.90
2024-02-13T00:39:26.713Z,118.10
2024-02-13T00:40:26.825Z,121.50
2024-02-13T00:41:26.738Z,125.60
2024-02-13T00:42:26.732Z,120.90
2024-02-13T00:43:26.691Z,108.10
2024-02-13T00:44:26.782Z,102.50
2024-02-13T00:45:26.707Z,70.80
2024-02-13T00:46:26.742Z,146.30
2024-02-13T00:47:26.724Z,77.60
2024-02-13T00:48:26.719Z,120.40
2024-02-13T00:49:26.708Z,100.30
2024-02-13T00:50:26.711Z,85.00
2024-02-13T00:51:26.627Z,146.40
2024-02-13T00:52:26.735Z,98.10
2024-02-13T00:53:26.616Z,122.20
2024-02-13T00:54:26.649Z,101.40
2024-02-13T00:55:26.554Z,114.50
2024-02-13T00:56:26.647Z,89.40
2024-02-13T00:57:26.610Z,117.80
2024-02-13T00:58:26.668Z,112.40
2024-02-13T00:59:26.780Z,112.60
2024-02-13T01:00:26.528Z,118.60
2024-02-13T01:01:26.548Z,74.80
2024-02-13T01:02:26.585Z,127.70
2024-02-13T01:03:26.535Z,84.00
2024-02-13T01:04:26.647Z,136.60
2024-02-13T01:05:26.535Z,118.00
2024-02-13T01:06:26.505Z,107.10
2024-02-13T01:07:26.488Z,93.00
2024-02-13T01:08:26.567Z,86.00
2024-02-13T01:09:26.514Z,121.30
2024-02-13T01:10:26.599Z,112.40
2024-02-13T01:11:26.470Z,104.40
2024-02-13T01:12:26.450Z,110.50
2024-02-13T01:13:26.480Z,103.70
2024-02-13T01:14:26.483Z,122.00
2024-02-13T01:15:26.396Z,114.80
2024-02-13T01:16:26.501Z,127.30
2024-02-13T01:17:26.398Z,124.90
2024-02-13T01:18:26.514Z,125.30
2024-02-13T01:19:26.423Z,118.90
2024-02-13T01:20:26.432Z,135.20
2024-02-13T01:21:26.424Z,143.30
2024-02-13T01:22:26.447Z,143.90
2024-02-13T01:23:26.407Z,122.20
2024-02-13T01:24:26.299Z,169.30
2024-02-13T01:25:26.364Z,161.50
2024-02-13T01:26:26.401Z,157.60
2024-02-13T01:27:26.313Z,141.90
2024-02-13T01:28:26.375Z,135.30
2024-02-13T01:29:26.575Z,152.20
2024-02-13T01:30:26.315Z,115.20
2024-02-13T01:31:26.300Z,118.00
2024-02-13T01:32:26.349Z,130.20
2024-02-13T01:33:26.543Z,128.40
2024-02-13T01:34:26.340Z,105.60
2024-02-13T01:35:26.256Z,154.70
2024-02-13T01:36:26.235Z,133.00
2024-02-13T01:37:26.259Z,146.60
2024-02-13T01:38:26.341Z,153.80
2024-02-13T01:39:26.213Z,145.40
2024-02-13T01:40:26.279Z,163.40
2024-02-13T01:41:26.291Z,183.60
2024-02-13T01:42:26.171Z,181.70
2024-02-13T01:43:26.327Z,263.90
2024-02-13T01:44:26.174Z,145.10
2024-02-13T01:45:26.155Z,169.10
2024-02-13T01:46:26.201Z,175.50
2024-02-13T01:47:26.264Z,148.60
2024-02-13T01:48:26.308Z,272.10
2024-02-13T01:49:26.145Z,289.40
2024-02-13T01:50:26.115Z,176.70
2024-02-13T01:51:26.144Z,153.60
2024-02-13T01:52:26.187Z,201.70
2024-02-13T01:53:26.092Z,178.30
2024-02-13T01:54:26.051Z,134.70
2024-02-13T01:55:26.098Z,132.30
2024-02-13T01:56:26.109Z,239.40
2024-02-13T01:57:26.014Z,206.30
2024-02-13T01:58:26.126Z,201.70
2024-02-13T01:59:26.037Z,150.90
2024-02-13T02:00:26.086Z,150.70
2024-02-13T02:01:26.016Z,142.90
2024-02-13T02:02:25.990Z,182.40
2024-02-13T02:03:26.022Z,165.40
2024-02-13T02:04:26.221Z,192.00
2024-02-13T02:05:26.017Z,237.20
2024-02-13T02:06:26.029Z,237.40
2024-02-13T02:07:25.985Z,241.90
2024-02-13T02:08:26.035Z,264.40
2024-02-13T02:09:25.937Z,200.60
2024-02-13T02:10:26.017Z,246.30
2024-02-13T02:11:26.646Z,200.20
2024-02-13T02:12:25.900Z,194.90
2024-02-13T02:13:25.880Z,129.10
2024-02-13T02:14:25.893Z,235.00
2024-02-13T02:15:25.880Z,161.00
2024-02-13T02:16:25.982Z,172.80
2024-02-13T02:17:25.903Z,244.40
2024-02-13T02:18:26.145Z,189.50
2024-02-13T02:19:25.892Z,203.40
2024-02-13T02:20:25.830Z,220.90
2024-02-13T02:21:25.842Z,136.20
2024-02-13T02:22:25.903Z,202.20
2024-02-13T02:23:25.826Z,132.60
2024-02-13T02:24:25.860Z,133.40
2024-02-13T02:25:25.803Z,111.80
2024-02-13T02:26:25.830Z,186.90
2024-02-13T02:27:25.843Z,135.30
2024-02-13T02:28:25.825Z,109.20
2024-02-13T02:29:25.776Z,204.60
2024-02-13T02:30:25.733Z,151.60
2024-02-13T02:31:25.766Z,183.90
2024-02-13T02:32:25.894Z,150.00
2024-02-13T02:33:25.741Z,142.30
2024-02-13T02:34:25.835Z,156.20
2024-02-13T02:35:25.707Z,199.80
2024-02-13T02:36:25.706Z,130.10
2024-02-13T02:37:25.676Z,174.40
2024-02-13T02:38:25.722Z,154.10
2024-02-13T02:39:25.678Z,178.40
2024-02-13T02:40:25.747Z,116.30
2024-02-13T02:41:25.659Z,221.50
2024-02-13T02:42:25.652Z,125.60
2024-02-13T02:43:25.669Z,96.50
2024-02-13T02:44:25.658Z,108.00
2024-02-13T02:45:25.702Z,141.70
2024-02-13T02:46:25.772Z,125.40
2024-02-13T02:47:25.690Z,120.30
2024-02-13T02:48:25.647Z,142.70
2024-02-13T02:49:25.625Z,104.40
2024-02-13T02:50:25.584Z,124.40
2024-02-13T02:51:25.589Z,142.00
2024-02-13T02:52:25.635Z,105.90
2024-02-13T02:53:25.565Z,99.80
2024-02-13T02:54:25.545Z,119.20
2024-02-13T02:55:25.560Z,125.30
2024-02-13T02:56:25.546Z,91.90
2024-02-13T02:57:25.507Z,109.40
2024-02-13T02:58:25.561Z,113.70
2024-02-13T02:59:25.525Z,101.60
2024-02-13T03:00:25.496Z,99.80
2024-02-13T03:01:25.435Z,106.80
2024-02-13T03:02:25.549Z,85.50
2024-02-13T03:03:25.597Z,79.30
2024-02-13T03:04:25.464Z,79.80
2024-02-13T03:05:25.552Z,96.10
2024-02-13T03:06:25.465Z,75.20
2024-02-13T03:07:25.449Z,112.50
2024-02-13T03:08:25.457Z,83.10
2024-02-13T03:09:25.445Z,107.20
2024-02-13T03:10:25.378Z,86.00
2024-02-13T03:11:25.391Z,95.80
2024-02-13T03:12:25.327Z,95.40
2024-02-13T03:13:25.404Z,93.00
2024-02-13T03:14:25.381Z,131.20
2024-02-13T03:15:25.374Z,96.90
2024-02-13T03:16:25.309Z,95.00
2024-02-13T03:17:25.368Z,85.20
2024-02-13T03:18:25.419Z,79.60
2024-02-13T03:19:25.379Z,71.10
2024-02-13T03:20:25.378Z,76.90
2024-02-13T03:21:25.342Z,101.10
2024-02-13T03:22:25.323Z,84.00
2024-02-13T03:23:25.336Z,85.00
2024-02-13T03:24:25.243Z,76.70
2024-02-13T03:25:25.271Z,93.30
2024-02-13T03:26:25.231Z,66.80
2024-02-13T03:27:25.279Z,79.90
2024-02-13T03:28:25.200Z,98.70
2024-02-13T03:29:25.238Z,63.40
2024-02-13T03:30:25.211Z,95.90
2024-02-13T03:31:25.156Z,59.40
2024-02-13T03:32:25.252Z,69.60
2024-02-13T03:33:25.402Z,81.60
2024-02-13T03:34:25.229Z,72.30
2024-02-13T03:35:25.212Z,72.60
2024-02-13T03:36:25.206Z,69.80
2024-02-13T03:37:25.161Z,101.60
2024-02-13T03:38:25.230Z,75.30
2024-02-13T03:39:25.132Z,81.50
2024-02-13T03:40:25.127Z,73.80
2024-02-13T03:41:25.108Z,98.10
2024-02-13T03:42:25.117Z,73.40
2024-02-13T03:43:25.038Z,109.60
2024-02-13T03:44:25.168Z,72.20
2024-02-13T03:45:25.065Z,94.60
2024-02-13T03:46:25.048Z,91.20
2024-02-13T03:47:25.132Z,72.00
2024-02-13T03:48:25.310Z,78.20
2024-02-13T03:49:25.104Z,78.80
2024-02-13T03:50:25.174Z,116.20
2024-02-13T03:51:25.014Z,85.40
2024-02-13T03:52:25.028Z,89.90
2024-02-13T03:53:25.064Z,61.60
2024-02-13T03:54:24.992Z,62.20
2024-02-13T03:55:25.127Z,52.00
2024-02-13T03:56:24.948Z,60.60
2024-02-13T03:57:24.959Z,75.10
2024-02-13T03:58:24.979Z,71.10
2024-02-13T03:59:24.966Z,53.40
2024-02-13T04:00:24.921Z,71.30
2024-02-13T04:01:25.015Z,62.60
2024-02-13T04:02:24.989Z,52.20
2024-02-13T04:03:24.905Z,51.60
2024-02-13T04:04:24.917Z,51.90
2024-02-13T04:05:24.939Z,56.00
2024-02-13T04:06:24.976Z,47.40
2024-02-13T04:07:24.980Z,62.70
2024-02-13T04:08:24.865Z,48.60
2024-02-13T04:09:24.809Z,54.40
2024-02-13T04:10:24.791Z,55.20
2024-02-13T04:11:24.893Z,54.70
2024-02-13T04:12:24.907Z,56.00
2024-02-13T04:13:24.834Z,56.60
2024-02-13T04:14:24.848Z,54.70
2024-02-13T04:15:24.802Z,51.90
2024-02-13T04:16:24.805Z,52.30
2024-02-13T04:17:24.798Z,61.00
2024-02-13T04:18:24.988Z,51.50
2024-02-13T04:19:24.762Z,55.30
2024-02-13T04:20:24.813Z,49.30
2024-02-13T04:21:24.773Z,57.30
2024-02-13T04:22:24.777Z,68.10
2024-02-13T04:23:24.792Z,55.50
2024-02-13T04:24:24.754Z,54.80
2024-02-13T04:25:24.683Z,69.90
2024-02-13T04:26:31.503Z,75.50
2024-02-13T04:27:24.704Z,78.90
2024-02-13T04:28:24.743Z,59.90
2024-02-13T04:29:24.783Z,51.10
2024-02-13T04:30:24.684Z,50.20
2024-02-13T04:31:24.653Z,70.10
2024-02-13T04:32:24.927Z,63.80
2024-02-13T04:33:24.759Z,42.00
2024-02-13T04:34:25.267Z,40.60
2024-02-13T04:35:24.698Z,43.00
2024-02-13T04:36:24.644Z,45.40
2024-02-13T04:37:24.616Z,44.90
2024-02-13T04:38:24.608Z,52.60
2024-02-13T04:39:24.675Z,39.50
2024-02-13T04:40:24.603Z,45.00
2024-02-13T04:41:24.547Z,40.50
2024-02-13T04:42:24.588Z,46.30
2024-02-13T04:43:24.539Z,44.10
2024-02-13T04:44:24.504Z,41.20
2024-02-13T04:45:24.624Z,50.10
2024-02-13T04:46:24.519Z,39.80
2024-02-13T04:47:24.637Z,49.80
2024-02-13T04:48:24.576Z,48.50
2024-02-13T04:49:24.578Z,43.80
2024-02-13T04:50:24.483Z,54.50
2024-02-13T04:51:24.538Z,45.80
2024-02-13T04:52:24.506Z,47.10
2024-02-13T04:53:24.522Z,60.60
2024-02-13T04:54:24.461Z,44.10
2024-02-13T04:55:24.442Z,56.90
2024-02-13T04:56:24.469Z,48.80
2024-02-13T04:57:24.499Z,60.10
2024-02-13T04:58:24.397Z,56.90
2024-02-13T04:59:24.584Z,46.50
2024-02-13T05:00:24.384Z,41.00
2024-02-13T05:01:24.395Z,54.90
2024-02-13T05:02:24.359Z,49.80
2024-02-13T05:03:24.407Z,56.70
2024-02-13T05:04:24.362Z,47.60
2024-02-13T05:05:24.373Z,55.60
2024-02-13T05:06:24.350Z,52.90
2024-02-13T05:07:24.293Z,61.80
2024-02-13T05:08:24.318Z,55.20
2024-02-13T05:09:24.373Z,50.60
2024-02-13T05:10:24.318Z,53.50
2024-02-13T05:11:24.361Z,71.10
2024-02-13T05:12:24.231Z,71.90
2024-02-13T05:13:24.275Z,56.70
2024-02-13T05:14:24.425Z,48.30
2024-02-13T05:15:24.320Z,54.20
2024-02-13T05:16:24.298Z,57.60
2024-02-13T05:17:24.331Z,53.80
2024-02-13T05:18:24.424Z,50.10
2024-02-13T05:19:24.406Z,60.90
2024-02-13T05:20:24.333Z,42.90
2024-02-13T05:21:24.225Z,46.50
2024-02-13T05:22:24.235Z,68.30
2024-02-13T05:23:24.198Z,45.90
2024-02-13T05:24:24.180Z,51.40
2024-02-13T05:25:24.158Z,48.60
2024-02-13T05:26:24.445Z,41.70
2024-02-13T05:27:24.133Z,47.40
2024-02-13T05:28:24.126Z,46.60
2024-02-13T05:29:24.128Z,40.70
2024-02-13T05:30:24.126Z,36.40
2024-02-13T05:31:24.224Z,40.50
2024-02-13T05:32:24.256Z,47.50
2024-02-13T05:33:24.358Z,44.90
2024-02-13T05:34:24.251Z,46.50
2024-02-13T05:35:24.185Z,40.80
2024-02-13T05:36:24.113Z,40.70
2024-02-13T05:37:24.163Z,49.00
2024-02-13T05:38:24.221Z,37.40
2024-02-13T05:39:24.136Z,35.20
2024-02-13T05:40:23.999Z,40.40
2024-02-13T05:41:24.190Z,49.20
2024-02-13T05:42:23.988Z,41.90
2024-02-13T05:43:24.106Z,32.60
2024-02-13T05:44:23.939Z,36.40
2024-02-13T05:45:24.086Z,33.90
2024-02-13T05:46:24.001Z,35.80
2024-02-13T05:47:23.926Z,35.90
2024-02-13T05:48:23.975Z,36.90
2024-02-13T05:49:24.105Z,31.50
2024-02-13T05:50:23.917Z,34.90
2024-02-13T05:51:23.889Z,31.00
2024-02-13T05:52:23.891Z,32.40
2024-02-13T05:53:23.907Z,33.80
2024-02-13T05:54:23.947Z,32.20
2024-02-13T05:55:23.833Z,36.40
2024-02-13T05:56:27.959Z,38.00
2024-02-13T05:57:23.824Z,37.40
2024-02-13T05:58:23.738Z,35.70
2024-02-13T05:59:23.832Z,35.10
2024-02-13T06:00:23.912Z,36.60
2024-02-13T06:01:24.081Z,46.40
2024-02-13T06:02:23.850Z,45.60
2024-02-13T06:03:23.755Z,41.50
2024-02-13T06:04:23.750Z,38.70
2024-02-13T06:05:23.804Z,38.30
2024-02-13T06:06:23.907Z,41.20
2024-02-13T06:07:23.688Z,42.20
2024-02-13T06:08:23.756Z,36.50
2024-02-13T06:09:23.695Z,37.50
2024-02-13T06:10:23.679Z,44.50
2024-02-13T06:11:23.846Z,36.80
2024-02-13T06:12:23.669Z,37.80
2024-02-13T06:13:23.634Z,47.10
2024-02-13T06:14:23.838Z,36.80
2024-02-13T06:15:23.651Z,45.20
2024-02-13T06:16:23.652Z,30.80
2024-02-13T06:17:23.840Z,34.40
2024-02-13T06:18:23.686Z,36.00
2024-02-13T06:19:23.614Z,41.20
2024-02-13T06:20:23.640Z,41.70
2024-02-13T06:21:25.677Z,44.50
2024-02-13T06:22:23.545Z,35.20
2024-02-13T06:23:23.664Z,37.50
2024-02-13T06:24:23.595Z,35.40
2024-02-13T06:25:23.591Z,45.80
2024-02-13T06:26:23.584Z,43.00
2024-02-13T06:27:23.542Z,41.30
2024-02-13T06:28:23.598Z,42.30
2024-02-13T06:29:23.507Z,41.20
2024-02-13T06:30:23.473Z,38.90
2024-02-13T06:31:23.500Z,46.20
2024-02-13T06:32:23.497Z,38.80
2024-02-13T06:33:23.651Z,46.40
2024-02-13T06:34:23.589Z,38.70
2024-02-13T06:35:23.421Z,51.70
2024-02-13T06:36:23.439Z,45.60
2024-02-13T06:37:23.414Z,38.70
2024-02-13T06:38:23.422Z,41.00
2024-02-13T06:39:23.420Z,52.90
2024-02-13T06:40:23.480Z,44.20
2024-02-13T06:41:23.485Z,37.10
2024-02-13T06:42:23.352Z,36.30
2024-02-13T06:43:23.398Z,40.00
2024-02-13T06:44:23.498Z,49.10
2024-02-13T06:45:23.459Z,38.90
2024-02-13T06:46:23.406Z,43.90
2024-02-13T06:47:23.393Z,45.70
2024-02-13T06:48:23.609Z,41.60
2024-02-13T06:49:23.364Z,40.50
2024-02-13T06:50:23.359Z,40.40
2024-02-13T06:51:23.438Z,46.40
2024-02-13T06:52:23.330Z,38.60
2024-02-13T06:53:23.303Z,45.50
2024-02-13T06:54:23.283Z,41.70
2024-02-13T06:55:23.278Z,43.10
2024-02-13T06:56:23.255Z,40.60
2024-02-13T06:57:23.350Z,37.00
2024-02-13T06:58:23.251Z,35.50
2024-02-13T06:59:23.272Z,36.90
2024-02-13T07:00:23.233Z,34.60
2024-02-13T07:01:23.247Z,37.50
2024-02-13T07:02:23.230Z,34.40
2024-02-13T07:03:23.321Z,39.00
2024-02-13T07:04:23.272Z,35.50
2024-02-13T07:05:23.224Z,32.20
2024-02-13T07:06:37.583Z,32.90
2024-02-13T07:07:32.742Z,32.40
2024-02-13T07:08:23.409Z,32.00
2024-02-13T07:09:23.348Z,33.50
2024-02-13T07:10:23.240Z,33.40
2024-02-13T07:11:23.151Z,32.70
2024-02-13T07:12:23.097Z,31.00
2024-02-13T07:13:23.116Z,29.10
2024-02-13T07:14:25.808Z,31.80
2024-02-13T07:15:23.154Z,33.00
2024-02-13T07:16:23.097Z,30.50
2024-02-13T07:17:23.134Z,32.30
2024-02-13T07:18:23.213Z,30.30
2024-02-13T07:19:23.222Z,33.00
2024-02-13T07:20:23.180Z,31.50
2024-02-13T07:21:25.385Z,31.50
2024-02-13T07:22:23.017Z,34.00
2024-02-13T07:23:23.052Z,28.10
2024-02-13T07:24:22.969Z,30.70
2024-02-13T07:25:23.050Z,31.20
2024-02-13T07:26:23.039Z,33.40
2024-02-13T07:27:22.952Z,36.20
2024-02-13T07:28:22.952Z,29.20
2024-02-13T07:29:22.996Z,31.50
2024-02-13T07:30:22.932Z,31.40
2024-02-13T07:31:23.020Z,30.60
2024-02-13T07:32:22.930Z,30.60
2024-02-13T07:33:23.245Z,36.50
2024-02-13T07:34:23.045Z,32.60
2024-02-13T07:35:22.974Z,31.30
2024-02-13T07:36:22.922Z,29.50
2024-02-13T07:37:22.983Z,36.30
2024-02-13T07:38:22.884Z,40.60
2024-02-13T07:39:22.855Z,36.20
2024-02-13T07:40:22.852Z,38.50
2024-02-13T07:41:22.860Z,32.50
2024-02-13T07:42:22.802Z,38.50
2024-02-13T07:43:22.923Z,36.90
2024-02-13T07:44:22.941Z,27.40
2024-02-13T07:45:22.803Z,26.60
2024-02-13T07:46:22.800Z,26.10
2024-02-13T07:47:22.983Z,30.80
2024-02-13T07:48:23.126Z,27.30
2024-02-13T07:49:22.778Z,25.20
2024-02-13T07:50:22.903Z,25.80
2024-02-13T07:51:22.775Z,25.30
2024-02-13T07:52:22.720Z,27.50
2024-02-13T07:53:22.820Z,27.10
2024-02-13T07:54:22.771Z,23.10
2024-02-13T07:55:22.720Z,23.30
2024-02-13T07:56:22.721Z,22.90
2024-02-13T07:57:22.932Z,19.40
2024-02-13T07:58:22.665Z,23.20
2024-02-13T07:59:22.667Z,21.80
2024-02-13T08:00:22.799Z,22.50
2024-02-13T08:01:22.669Z,22.30
2024-02-13T08:02:22.680Z,20.70
2024-02-13T08:03:22.626Z,19.70
2024-02-13T08:04:22.639Z,21.10
2024-02-13T08:05:22.760Z,20.80
2024-02-13T08:06:22.805Z,17.30
2024-02-13T08:07:22.580Z,21.70
2024-02-13T08:08:22.601Z,20.90
2024-02-13T08:09:22.616Z,20.60
2024-02-13T08:10:22.569Z,20.90
2024-02-13T08:11:22.857Z,20.70
2024-02-13T08:12:22.576Z,21.10
2024-02-13T08:13:22.604Z,20.50
2024-02-13T08:14:22.578Z,19.70
2024-02-13T08:15:22.520Z,19.60
2024-02-13T08:16:22.525Z,22.00
2024-02-13T08:17:22.576Z,20.20
2024-02-13T08:18:22.549Z,19.20
2024-02-13T08:19:22.481Z,18.80
2024-02-13T08:20:22.544Z,21.70
2024-02-13T08:21:22.653Z,21.10
2024-02-13T08:22:22.551Z,18.60
2024-02-13T08:23:22.502Z,18.70
2024-02-13T08:24:22.609Z,20.50
2024-02-13T08:25:22.448Z,17.20
2024-02-13T08:26:22.468Z,19.50
2024-02-13T08:27:22.485Z,21.60
2024-02-13T08:28:22.423Z,17.20
2024-02-13T08:29:22.460Z,23.10
2024-02-13T08:30:22.367Z,19.60
2024-02-13T08:31:22.399Z,20.20
2024-02-13T08:32:22.330Z,18.80
2024-02-13T08:33:22.555Z,19.90
2024-02-13T08:34:22.534Z,20.30
2024-02-13T08:35:22.578Z,18.40
2024-02-13T08:36:22.381Z,19.60
2024-02-13T08:37:22.351Z,18.40
2024-02-13T08:38:22.353Z,18.00
2024-02-13T08:39:22.413Z,19.80
2024-02-13T08:40:22.289Z,17.50
2024-02-13T08:41:22.307Z,20.50
2024-02-13T08:42:22.289Z,18.00
2024-02-13T08:43:22.287Z,19.90
2024-02-13T08:44:22.274Z,20.20
2024-02-13T08:45:24.745Z,20.90
2024-02-13T08:46:22.254Z,22.00
2024-02-13T08:47:22.325Z,18.20
2024-02-13T08:48:22.388Z,18.90
2024-02-13T08:49:22.603Z,15.70
2024-02-13T08:50:22.521Z,18.60
2024-02-13T08:51:22.242Z,16.20
2024-02-13T08:52:22.164Z,16.80
2024-02-13T08:53:22.280Z,16.00
2024-02-13T08:54:22.190Z,17.30
2024-02-13T08:55:22.151Z,16.00
2024-02-13T08:56:22.276Z,17.40
2024-02-13T08:57:22.129Z,17.90
2024-02-13T08:58:22.143Z,14.00
2024-02-13T08:59:22.165Z,14.40
2024-02-13T09:00:22.157Z,15.10
2024-02-13T09:01:22.190Z,13.80
2024-02-13T09:02:22.193Z,14.40
2024-02-13T09:03:22.079Z,15.80
2024-02-13T09:04:22.254Z,15.20
2024-02-13T09:05:22.192Z,13.50
2024-02-13T09:06:22.247Z,15.90
2024-02-13T09:07:22.139Z,15.30
2024-02-13T09:08:22.119Z,11.10
2024-02-13T09:09:22.056Z,18.10
2024-02-13T09:10:22.037Z,13.20
2024-02-13T09:11:22.068Z,11.70
2024-02-13T09:12:21.990Z,12.90
2024-02-13T09:13:22.091Z,11.90
2024-02-13T09:14:22.001Z,13.20
2024-02-13T09:15:21.974Z,13.70
2024-02-13T09:16:21.974Z,11.00
2024-02-13T09:17:21.966Z,13.30
2024-02-13T09:18:22.063Z,10.80
2024-02-13T09:19:22.060Z,11.20
2024-02-13T09:20:21.981Z,11.80
2024-02-13T09:21:21.905Z,12.10
2024-02-13T09:22:21.912Z,10.40
2024-02-13T09:23:21.968Z,9.40
2024-02-13T09:24:21.961Z,12.50
2024-02-13T09:25:22.003Z,9.40
2024-02-13T09:26:22.008Z,12.70
2024-02-13T09:27:21.866Z,11.70
2024-02-13T09:28:21.831Z,10.70
2024-02-13T09:29:21.872Z,9.40
2024-02-13T09:30:21.926Z,12.50
2024-02-13T09:31:21.807Z,9.40
2024-02-13T09:32:21.844Z,8.80
2024-02-13T09:33:22.027Z,8.70
2024-02-13T09:34:21.925Z,10.60
2024-02-13T09:35:21.825Z,9.80
2024-02-13T09:36:21.858Z,8.90
2024-02-13T09:37:21.758Z,8.70
2024-02-13T09:38:21.742Z,7.70
2024-02-13T09:39:21.760Z,11.70
2024-02-13T09:40:21.691Z,9.80
2024-02-13T09:41:21.765Z,7.50
2024-02-13T09:42:21.810Z,10.20
2024-02-13T09:43:21.685Z,10.00
2024-02-13T09:44:21.726Z,8.90
2024-02-13T09:45:21.721Z,8.90
2024-02-13T09:46:21.702Z,7.30
2024-02-13T09:47:21.722Z,7.70
2024-02-13T09:48:21.945Z,8.80
2024-02-13T09:49:21.758Z,7.80
2024-02-13T09:50:21.667Z,8.40
2024-02-13T09:51:21.611Z,9.00
2024-02-13T09:52:21.706Z,8.30
2024-02-13T09:53:21.637Z,10.60
2024-02-13T09:54:21.699Z,10.00
2024-02-13T09:55:21.580Z,6.30
2024-02-13T09:56:21.586Z,8.60
2024-02-13T09:57:21.593Z,6.30
2024-02-13T09:58:21.580Z,7.90
2024-02-13T09:59:21.623Z,10.00
2024-02-13T10:00:21.574Z,6.60
2024-02-13T10:01:21.561Z,7.30
2024-02-13T10:02:21.549Z,7.80
2024-02-13T10:03:21.579Z,9.30
2024-02-13T10:04:21.565Z,6.80
2024-02-13T10:05:21.638Z,8.10
2024-02-13T10:06:21.581Z,5.80
2024-02-13T10:07:21.506Z,7.70
2024-02-13T10:08:21.522Z,6.00
2024-02-13T10:09:21.500Z,7.40
2024-02-13T10:10:21.471Z,8.10
2024-02-13T10:11:21.553Z,7.10
2024-02-13T10:12:21.395Z,7.10
2024-02-13T10:13:21.407Z,8.80
2024-02-13T10:14:21.435Z,7.90
2024-02-13T10:15:21.431Z,7.60
2024-02-13T10:16:21.443Z,9.40
2024-02-13T10:17:21.485Z,7.50
2024-02-13T10:18:21.633Z,7.40
2024-02-13T10:19:21.432Z,6.40
2024-02-13T10:20:21.407Z,6.50
2024-02-13T10:21:21.355Z,5.10
2024-02-13T10:22:21.344Z,7.70
2024-02-13T10:23:21.335Z,7.40
2024-02-13T10:24:21.307Z,6.00
2024-02-13T10:25:24.406Z,6.10
2024-02-13T10:26:21.376Z,8.50
2024-02-13T10:27:21.353Z,6.00
2024-02-13T10:28:21.252Z,6.50
2024-02-13T10:29:21.292Z,5.20
2024-02-13T10:30:21.278Z,7.10
2024-02-13T10:31:21.305Z,5.90
2024-02-13T10:32:21.351Z,5.50
2024-02-13T10:33:21.346Z,6.60
2024-02-13T10:34:21.204Z,6.40
2024-02-13T10:35:21.262Z,4.80
2024-02-13T10:36:21.269Z,5.60
2024-02-13T10:37:21.228Z,6.90
2024-02-13T10:38:21.293Z,5.10
2024-02-13T10:39:21.143Z,6.30
2024-02-13T10:40:21.219Z,5.90
2024-02-13T10:41:21.117Z,6.50
2024-02-13T10:42:21.144Z,5.20
2024-02-13T10:43:21.105Z,5.60
2024-02-13T10:44:21.200Z,7.90
2024-02-13T10:45:21.125Z,5.70
2024-02-13T10:46:21.059Z,5.50
2024-02-13T10:47:21.140Z,4.50
2024-02-13T10:48:21.116Z,3.40
2024-02-13T10:49:21.151Z,3.40
2024-02-13T10:50:21.116Z,4.20
2024-02-13T10:51:21.054Z,5.90
2024-02-13T10:52:21.048Z,5.00
2024-02-13T10:53:21.055Z,5.00
2024-02-13T10:54:20.992Z,4.50
2024-02-13T10:55:21.095Z,4.10
2024-02-13T10:56:21.056Z,6.50
2024-02-13T10:57:20.993Z,3.20
2024-02-13T10:58:24.502Z,3.00
2024-02-13T10:59:21.006Z,5.60
2024-02-13T11:00:21.021Z,3.30
2024-02-13T11:01:23.818Z,3.00
2024-02-13T11:02:21.052Z,2.80
2024-02-13T11:03:21.025Z,3.90
2024-02-13T11:04:20.926Z,2.00
2024-02-13T11:05:21.016Z,2.30
2024-02-13T11:06:20.975Z,3.90
2024-02-13T11:07:20.962Z,3.70
2024-02-13T11:08:20.950Z,3.70
2024-02-13T11:09:20.903Z,3.10
2024-02-13T11:10:20.876Z,2.50
2024-02-13T11:11:20.930Z,2.60
2024-02-13T11:12:20.924Z,3.10
2024-02-13T11:13:21.834Z,2.30
2024-02-13T11:14:20.876Z,2.10
2024-02-13T11:15:20.802Z,3.00
2024-02-13T11:16:20.809Z,2.10
2024-02-13T11:17:20.968Z,3.10
2024-02-13T11:18:20.867Z,2.10
2024-02-13T11:19:20.789Z,2.40
2024-02-13T11:20:20.809Z,3.10
2024-02-13T11:21:20.782Z,3.30
2024-02-13T11:22:20.786Z,3.20
2024-02-13T11:23:20.748Z,3.80
2024-02-13T11:24:20.741Z,2.80
2024-02-13T11:25:20.736Z,3.80
2024-02-13T11:26:20.750Z,3.00
2024-02-13T11:27:28.137Z,4.00
2024-02-13T11:28:20.819Z,2.50
2024-02-13T11:29:20.700Z,3.40
2024-02-13T11:30:20.686Z,4.20
2024-02-13T11:31:20.672Z,3.10
2024-02-13T11:32:20.757Z,2.90
2024-02-13T11:33:20.765Z,4.20
2024-02-13T11:34:21.062Z,12.80
2024-02-13T11:35:21.734Z,3.10
2024-02-13T11:36:20.845Z,2.70
2024-02-13T11:37:20.610Z,2.70
2024-02-13T11:38:20.615Z,2.40
2024-02-13T11:39:20.676Z,2.30
2024-02-13T11:40:20.581Z,4.00
2024-02-13T11:41:20.622Z,2.20
2024-02-13T11:42:20.527Z,2.60
2024-02-13T11:43:20.552Z,2.50
2024-02-13T11:44:20.528Z,2.70
2024-02-13T11:45:20.574Z,4.90
2024-02-13T11:46:20.474Z,5.00
2024-02-13T11:47:20.847Z,3.40
2024-02-13T11:48:20.625Z,3.40
2024-02-13T11:49:20.772Z,3.00
2024-02-13T11:50:20.736Z,3.50
2024-02-13T11:51:20.606Z,4.70
2024-02-13T11:52:20.458Z,1.50
2024-02-13T11:53:20.793Z,3.70
2024-02-13T11:54:20.387Z,3.80
2024-02-13T11:55:20.434Z,2.60
2024-02-13T11:56:20.508Z,5.70
2024-02-13T11:57:20.494Z,2.10
2024-02-13T11:58:20.519Z,2.90
2024-02-13T11:59:20.361Z,3.40
2024-02-13T12:00:21.177Z,3.90
2024-02-13T12:01:20.390Z,1.80
2024-02-13T12:02:20.408Z,3.40
2024-02-13T12:03:20.371Z,4.10
2024-02-13T12:04:20.353Z,3.20
2024-02-13T12:05:20.930Z,2.70
2024-02-13T12:06:20.319Z,3.20
2024-02-13T12:07:20.439Z,2.10
2024-02-13T12:08:20.339Z,2.40
2024-02-13T12:09:20.250Z,3.70
2024-02-13T12:10:20.323Z,2.20
2024-02-13T12:11:20.348Z,2.20
2024-02-13T12:12:20.266Z,2.10
2024-02-13T12:13:20.251Z,2.40
2024-02-13T12:14:20.335Z,3.90
2024-02-13T12:15:20.218Z,2.50
2024-02-13T12:16:20.244Z,3.70
2024-02-13T12:17:20.220Z,2.50
2024-02-13T12:18:20.334Z,3.20
2024-02-13T12:19:20.282Z,4.10
2024-02-13T12:20:20.408Z,1.70
2024-02-13T12:21:20.257Z,4.10
2024-02-13T12:22:20.196Z,3.70
2024-02-13T12:23:20.257Z,2.70
2024-02-13T12:24:20.169Z,2.60
2024-02-13T12:25:20.244Z,2.70
2024-02-13T12:26:20.194Z,3.80
2024-02-13T12:27:20.210Z,3.00
2024-02-13T12:28:20.130Z,2.70
2024-02-13T12:29:20.139Z,3.60
2024-02-13T12:30:20.078Z,3.70
2024-02-13T12:31:20.181Z,3.60
2024-02-13T12:32:20.137Z,3.00
2024-02-13T12:33:20.208Z,3.70
2024-02-13T12:34:20.445Z,2.40
2024-02-13T12:35:20.075Z,1.90
2024-02-13T12:36:20.488Z,4.40
2024-02-13T12:37:20.193Z,3.70
2024-02-13T12:38:20.089Z,4.80
2024-02-13T12:39:19.977Z,2.60
2024-02-13T12:40:20.059Z,3.20
2024-02-13T12:41:20.074Z,3.20
2024-02-13T12:42:20.048Z,4.10
2024-02-13T12:43:20.062Z,3.30
2024-02-13T12:44:20.157Z,4.90
2024-02-13T12:45:19.983Z,4.30
2024-02-13T12:46:20.076Z,3.30
2024-02-13T12:47:20.134Z,3.40
2024-02-13T12:48:20.158Z,3.10
2024-02-13T12:49:20.094Z,3.40
2024-02-13T12:50:20.064Z,4.40
2024-02-13T12:51:20.073Z,2.90
2024-02-13T12:52:19.876Z,3.60
2024-02-13T12:53:19.968Z,2.50